Katmai National Park, AK

1:01 PM AKST on December 28, 2014 (GMT -0900)
King Salmon | Change Station
CLOSE
Current Station
Airport
Location: King Salmon,
Elevation: 46 ft
Nearby Weather Stations

Elev 46 ft 58.68 °N, 156.66 °W | Updated 7 minutes ago

Overcast
Overcast
41 °F
Feels Like 31 °F
N
24
Wind Variable Wind from East
Gusts 33 mph

Today
High -- | Low -- °F
--% Chance of Precip.
Yesterday
High -- | Low -- °F
Precip. -- in
10:18 AM 4:38 PM
First Quarter, 52% visible
Pressure 29.81 in
Visibility 10.0 miles
Clouds Few 1500 ft
Mostly Cloudy 5500 ft
Overcast 12000 ft
Windchill 31 °F
Dew Point 34 °F
Humidity 76%
Rainfall 0.10 in
Snow Depth Not available.
UV 0 out of 12
Pollen Not available.
Air Quality Not available.
Flu Activity Not available.
METAR PAKN 282154Z 09021G29KT 10SM FEW015 BKN055 OVC120 05/01 A2980 RMK AO2 PK WND 09033/2111 RAE2055 SLP092 P0000 T00500011

More Conditions Fewer Conditions

Pressure 29.81 in
Visibility 10.0 miles
Clouds Few 1500 ft
Mostly Cloudy 5500 ft
Overcast 12000 ft
Windchill 31 °F
Dew Point 34 °F
Humidity 76%
Rainfall 0.10 in
Snow Depth Not available.
UV 0 out of 12
Pollen Not available.
Air Quality Not available.
Flu Activity Not available.
METAR PAKN 282154Z 09021G29KT 10SM FEW015 BKN055 OVC120 05/01 A2980 RMK AO2 PK WND 09033/2111 RAE2055 SLP092 P0000 T00500011

More Conditions Fewer Conditions

10-Day Weather Forecast

Almanac

Astronomy

Dec. 28, 2014 Rise Set
Actual Time
Civil Twilight
Nautical Twilight
Astronomical Twilight
Moon
Length of Visible Light
Length of Day
Tomorrow will be .
, % of the Moon is Illuminated

Today's Extremes

State Highs State Lows

Community

WunderPhotos

Upload Photos

1,781,444 photos uploaded!

WunderBlogs® & News

Nearby

Air Quality

  Air Quality AQ Index Pollutant
Not available.

Snow Depth

Station Depth Elevation

Earthquake Activity

City Distance Mag. Time & Date
Minimum magnitude displayed is 2.5.

Coastal Water Temperatures

Place Temperature

Nearby Weather Stations